sensor_id;sensor_type;location;lat;lon;timestamp;temperature;humidity
15364;DHT22;7781;49.690;6.472;2023-03-01T00:01:48;-2.60;99.90
15364;DHT22;7781;49.690;6.472;2023-03-01T00:04:17;-2.60;99.90
15364;DHT22;7781;49.690;6.472;2023-03-01T00:06:46;-2.50;99.90
15364;DHT22;7781;49.690;6.472;2023-03-01T00:09:15;-2.60;99.90
15364;DHT22;7781;49.690;6.472;2023-03-01T00:11:44;-2.60;99.90
15364;DHT22;7781;49.690;6.472;2023-03-01T00:14:15;-2.70;99.90
15364;DHT22;7781;49.690;6.472;2023-03-01T00:16:45;-2.70;99.90
15364;DHT22;7781;49.690;6.472;2023-03-01T00:19:17;-2.90;99.90
15364;DHT22;7781;49.690;6.472;2023-03-01T00:21:46;-3.00;99.90
15364;DHT22;7781;49.690;6.472;2023-03-01T00:24:14;-3.00;99.90
15364;DHT22;7781;49.690;6.472;2023-03-01T00:26:43;-3.00;99.90
15364;DHT22;7781;49.690;6.472;2023-03-01T00:29:13;-3.00;99.90
15364;DHT22;7781;49.690;6.472;2023-03-01T00:31:43;-3.00;99.90
15364;DHT22;7781;49.690;6.472;2023-03-01T00:34:11;-3.00;99.90
15364;DHT22;7781;49.690;6.472;2023-03-01T00:36:41;-3.00;99.90
15364;DHT22;7781;49.690;6.472;2023-03-01T00:39:12;-3.10;99.90
15364;DHT22;7781;49.690;6.472;2023-03-01T00:41:43;-3.00;99.90
15364;DHT22;7781;49.690;6.472;2023-03-01T00:44:13;-3.00;99.90
15364;DHT22;7781;49.690;6.472;2023-03-01T00:46:42;-3.00;99.90
15364;DHT22;7781;49.690;6.472;2023-03-01T00:49:11;-3.10;99.90
15364;DHT22;7781;49.690;6.472;2023-03-01T00:51:41;-3.10;99.90
15364;DHT22;7781;49.690;6.472;2023-03-01T00:54:10;-3.10;99.90
15364;DHT22;7781;49.690;6.472;2023-03-01T00:56:38;-3.00;99.90
15364;DHT22;7781;49.690;6.472;2023-03-01T00:59:07;-2.90;99.90
15364;DHT22;7781;49.690;6.472;2023-03-01T01:01:39;-2.90;99.90
15364;DHT22;7781;49.690;6.472;2023-03-01T01:04:09;-2.90;99.90
15364;DHT22;7781;49.690;6.472;2023-03-01T01:06:39;-3.00;99.90
15364;DHT22;7781;49.690;6.472;2023-03-01T01:09:15;-3.00;99.90
15364;DHT22;7781;49.690;6.472;2023-03-01T01:11:47;-3.00;99.90
15364;DHT22;7781;49.690;6.472;2023-03-01T01:14:17;-3.00;99.90
15364;DHT22;7781;49.690;6.472;2023-03-01T01:16:48;-3.00;99.90
15364;DHT22;7781;49.690;6.472;2023-03-01T01:19:17;-3.00;99.90
15364;DHT22;7781;49.690;6.472;2023-03-01T01:21:45;-3.10;99.90
15364;DHT22;7781;49.690;6.472;2023-03-01T01:24:17;-3.20;99.90
15364;DHT22;7781;49.690;6.472;2023-03-01T01:26:45;-3.30;99.90
15364;DHT22;7781;49.690;6.472;2023-03-01T01:29:14;-3.30;99.90
15364;DHT22;7781;49.690;6.472;2023-03-01T01:31:43;-3.30;99.90
15364;DHT22;7781;49.690;6.472;2023-03-01T01:34:15;-3.30;99.90
15364;DHT22;7781;49.690;6.472;2023-03-01T01:36:44;-3.20;99.90
15364;DHT22;7781;49.690;6.472;2023-03-01T01:39:13;-3.20;99.90
15364;DHT22;7781;49.690;6.472;2023-03-01T01:41:43;-3.30;99.90
15364;DHT22;7781;49.690;6.472;2023-03-01T01:44:16;-3.30;99.90
15364;DHT22;7781;49.690;6.472;2023-03-01T01:46:53;-3.40;99.90
15364;DHT22;7781;49.690;6.472;2023-03-01T01:49:29;-3.50;99.90
15364;DHT22;7781;49.690;6.472;2023-03-01T01:52:07;-3.50;99.90
15364;DHT22;7781;49.690;6.472;2023-03-01T01:54:40;-3.40;99.90
15364;DHT22;7781;49.690;6.472;2023-03-01T01:57:14;-3.50;99.90
15364;DHT22;7781;49.690;6.472;2023-03-01T01:59:48;-3.50;99.90
15364;DHT22;7781;49.690;6.472;2023-03-01T02:02:19;-3.50;99.90
15364;DHT22;7781;49.690;6.472;2023-03-01T02:04:54;-3.40;99.90
15364;DHT22;7781;49.690;6.472;2023-03-01T02:07:26;-3.50;99.90
15364;DHT22;7781;49.690;6.472;2023-03-01T02:09:56;-3.50;99.90
15364;DHT22;7781;49.690;6.472;2023-03-01T02:12:27;-3.60;99.90
15364;DHT22;7781;49.690;6.472;2023-03-01T02:14:55;-3.60;99.90
15364;DHT22;7781;49.690;6.472;2023-03-01T02:17:28;-3.70;99.90
15364;DHT22;7781;49.690;6.472;2023-03-01T02:20:07;-3.90;99.90
15364;DHT22;7781;49.690;6.472;2023-03-01T02:22:37;-4.00;99.90
15364;DHT22;7781;49.690;6.472;2023-03-01T02:25:20;-4.10;99.90
15364;DHT22;7781;49.690;6.472;2023-03-01T02:27:53;-4.20;99.90
15364;DHT22;7781;49.690;6.472;2023-03-01T02:30:26;-4.20;99.90
15364;DHT22;7781;49.690;6.472;2023-03-01T02:32:57;-4.30;99.90
15364;DHT22;7781;49.690;6.472;2023-03-01T02:35:32;-4.30;99.90
15364;DHT22;7781;49.690;6.472;2023-03-01T02:38:01;-4.30;99.90
15364;DHT22;7781;49.690;6.472;2023-03-01T02:40:34;-4.40;99.90
15364;DHT22;7781;49.690;6.472;2023-03-01T02:43:04;-4.40;99.90
15364;DHT22;7781;49.690;6.472;2023-03-01T02:45:37;-4.40;99.90
15364;DHT22;7781;49.690;6.472;2023-03-01T02:48:11;-4.40;99.90
15364;DHT22;7781;49.690;6.472;2023-03-01T02:50:56;-4.30;99.90
15364;DHT22;7781;49.690;6.472;2023-03-01T02:53:35;-4.30;99.90
15364;DHT22;7781;49.690;6.472;2023-03-01T02:56:08;-4.20;99.90
15364;DHT22;7781;49.690;6.472;2023-03-01T02:58:42;-4.20;99.90
15364;DHT22;7781;49.690;6.472;2023-03-01T03:01:16;-4.10;99.90
15364;DHT22;7781;49.690;6.472;2023-03-01T03:03:45;-4.00;99.90
15364;DHT22;7781;49.690;6.472;2023-03-01T03:06:14;-3.90;99.90
15364;DHT22;7781;49.690;6.472;2023-03-01T03:08:44;-3.80;99.90
15364;DHT22;7781;49.690;6.472;2023-03-01T03:11:12;-3.70;99.90
15364;DHT22;7781;49.690;6.472;2023-03-01T03:13:41;-3.60;99.90
15364;DHT22;7781;49.690;6.472;2023-03-01T03:16:21;-3.50;99.90
15364;DHT22;7781;49.690;6.472;2023-03-01T03:18:50;-3.40;99.90
15364;DHT22;7781;49.690;6.472;2023-03-01T03:21:19;-3.30;99.90
15364;DHT22;7781;49.690;6.472;2023-03-01T03:23:48;-3.20;99.90
15364;DHT22;7781;49.690;6.472;2023-03-01T03:26:16;-3.10;99.90
15364;DHT22;7781;49.690;6.472;2023-03-01T03:28:45;-3.10;99.90
15364;DHT22;7781;49.690;6.472;2023-03-01T03:31:14;-3.10;99.90
15364;DHT22;7781;49.690;6.472;2023-03-01T03:33:45;-3.00;99.90
15364;DHT22;7781;49.690;6.472;2023-03-01T03:36:15;-2.90;99.90
15364;DHT22;7781;49.690;6.472;2023-03-01T03:38:45;-3.00;99.90
15364;DHT22;7781;49.690;6.472;2023-03-01T03:41:13;-3.10;99.90
15364;DHT22;7781;49.690;6.472;2023-03-01T03:43:43;-3.30;99.90
15364;DHT22;7781;49.690;6.472;2023-03-01T03:46:12;-3.40;99.90
15364;DHT22;7781;49.690;6.472;2023-03-01T03:48:44;-3.50;99.90
15364;DHT22;7781;49.690;6.472;2023-03-01T03:51:15;-3.50;99.90
15364;DHT22;7781;49.690;6.472;2023-03-01T03:53:44;-3.60;99.90
15364;DHT22;7781;49.690;6.472;2023-03-01T03:56:13;-3.60;99.90
15364;DHT22;7781;49.690;6.472;2023-03-01T03:58:43;-3.60;99.90
15364;DHT22;7781;49.690;6.472;2023-03-01T04:01:11;-3.60;99.90
15364;DHT22;7781;49.690;6.472;2023-03-01T04:03:40;-3.70;99.90
15364;DHT22;7781;49.690;6.472;2023-03-01T04:06:16;-3.70;99.90
15364;DHT22;7781;49.690;6.472;2023-03-01T04:08:45;-3.80;99.90
15364;DHT22;7781;49.690;6.472;2023-03-01T04:11:18;-3.90;99.90
15364;DHT22;7781;49.690;6.472;2023-03-01T04:13:57;-3.90;99.90
15364;DHT22;7781;49.690;6.472;2023-03-01T04:16:28;-3.90;99.90
15364;DHT22;7781;49.690;6.472;2023-03-01T04:18:57;-3.80;99.90
15364;DHT22;7781;49.690;6.472;2023-03-01T04:21:28;-3.80;99.90
15364;DHT22;7781;49.690;6.472;2023-03-01T04:23:57;-3.70;99.90
15364;DHT22;7781;49.690;6.472;2023-03-01T04:26:26;-3.60;99.90
15364;DHT22;7781;49.690;6.472;2023-03-01T04:28:56;-3.50;99.90
15364;DHT22;7781;49.690;6.472;2023-03-01T04:31:26;-3.40;99.90
15364;DHT22;7781;49.690;6.472;2023-03-01T04:33:56;-3.40;99.90
15364;DHT22;7781;49.690;6.472;2023-03-01T04:36:25;-3.30;99.90
15364;DHT22;7781;49.690;6.472;2023-03-01T04:38:56;-3.30;99.90
15364;DHT22;7781;49.690;6.472;2023-03-01T04:41:26;-3.30;99.90
15364;DHT22;7781;49.690;6.472;2023-03-01T04:43:55;-3.30;99.90
15364;DHT22;7781;49.690;6.472;2023-03-01T04:46:24;-3.30;99.90
15364;DHT22;7781;49.690;6.472;2023-03-01T04:48:53;-3.30;99.90
15364;DHT22;7781;49.690;6.472;2023-03-01T04:51:21;-3.30;99.90
15364;DHT22;7781;49.690;6.472;2023-03-01T04:53:50;-3.30;99.90
15364;DHT22;7781;49.690;6.472;2023-03-01T04:56:21;-3.30;99.90
15364;DHT22;7781;49.690;6.472;2023-03-01T04:58:53;-3.30;99.90
15364;DHT22;7781;49.690;6.472;2023-03-01T05:01:22;-3.40;99.90
15364;DHT22;7781;49.690;6.472;2023-03-01T05:03:51;-3.40;99.90
15364;DHT22;7781;49.690;6.472;2023-03-01T05:06:20;-3.40;99.90
15364;DHT22;7781;49.690;6.472;2023-03-01T05:08:48;-3.50;99.90
15364;DHT22;7781;49.690;6.472;2023-03-01T05:11:17;-3.60;99.90
15364;DHT22;7781;49.690;6.472;2023-03-01T05:13:47;-3.60;99.90
15364;DHT22;7781;49.690;6.472;2023-03-01T05:16:18;-3.70;99.90
15364;DHT22;7781;49.690;6.472;2023-03-01T05:18:47;-3.70;99.90
15364;DHT22;7781;49.690;6.472;2023-03-01T05:21:21;-3.70;99.90
15364;DHT22;7781;49.690;6.472;2023-03-01T05:23:51;-3.70;99.90
15364;DHT22;7781;49.690;6.472;2023-03-01T05:26:20;-3.60;99.90
15364;DHT22;7781;49.690;6.472;2023-03-01T05:28:56;-3.60;99.90
15364;DHT22;7781;49.690;6.472;2023-03-01T05:31:28;-3.60;99.90
15364;DHT22;7781;49.690;6.472;2023-03-01T05:33:58;-3.50;99.90
15364;DHT22;7781;49.690;6.472;2023-03-01T05:36:28;-3.50;99.90
15364;DHT22;7781;49.690;6.472;2023-03-01T05:38:58;-3.60;99.90
15364;DHT22;7781;49.690;6.472;2023-03-01T05:41:27;-3.60;99.90
15364;DHT22;7781;49.690;6.472;2023-03-01T05:43:57;-3.60;99.90
15364;DHT22;7781;49.690;6.472;2023-03-01T05:46:26;-3.60;99.90
15364;DHT22;7781;49.690;6.472;2023-03-01T05:48:56;-3.60;99.90
15364;DHT22;7781;49.690;6.472;2023-03-01T05:51:25;-3.50;99.90
15364;DHT22;7781;49.690;6.472;2023-03-01T05:53:53;-3.40;99.90
15364;DHT22;7781;49.690;6.472;2023-03-01T05:56:22;-3.40;99.90
15364;DHT22;7781;49.690;6.472;2023-03-01T05:58:51;-3.40;99.90
15364;DHT22;7781;49.690;6.472;2023-03-01T06:01:21;-3.30;99.90
15364;DHT22;7781;49.690;6.472;2023-03-01T06:03:50;-3.30;99.90
15364;DHT22;7781;49.690;6.472;2023-03-01T06:06:18;-3.30;99.90
15364;DHT22;7781;49.690;6.472;2023-03-01T06:08:48;-3.30;99.90
15364;DHT22;7781;49.690;6.472;2023-03-01T06:11:17;-3.30;99.90
15364;DHT22;7781;49.690;6.472;2023-03-01T06:13:46;-3.30;99.90
15364;DHT22;7781;49.690;6.472;2023-03-01T06:16:16;-3.20;99.90
15364;DHT22;7781;49.690;6.472;2023-03-01T06:18:46;-3.20;99.90
15364;DHT22;7781;49.690;6.472;2023-03-01T06:21:14;-3.20;99.90
15364;DHT22;7781;49.690;6.472;2023-03-01T06:23:43;-3.10;99.90
15364;DHT22;7781;49.690;6.472;2023-03-01T06:26:11;-3.10;99.90
15364;DHT22;7781;49.690;6.472;2023-03-01T06:28:39;-3.10;99.90
15364;DHT22;7781;49.690;6.472;2023-03-01T06:31:11;-3.00;99.90
15364;DHT22;7781;49.690;6.472;2023-03-01T06:33:42;-3.00;99.90
15364;DHT22;7781;49.690;6.472;2023-03-01T06:36:13;-3.00;99.90
15364;DHT22;7781;49.690;6.472;2023-03-01T06:38:45;-3.00;99.90
15364;DHT22;7781;49.690;6.472;2023-03-01T06:41:14;-3.00;99.90
15364;DHT22;7781;49.690;6.472;2023-03-01T06:43:42;-3.00;99.90
15364;DHT22;7781;49.690;6.472;2023-03-01T06:46:10;-3.00;99.90
15364;DHT22;7781;49.690;6.472;2023-03-01T06:48:39;-3.00;99.90
15364;DHT22;7781;49.690;6.472;2023-03-01T06:51:07;-3.00;99.90
15364;DHT22;7781;49.690;6.472;2023-03-01T06:53:37;-2.90;99.90
15364;DHT22;7781;49.690;6.472;2023-03-01T06:56:06;-2.90;99.90
15364;DHT22;7781;49.690;6.472;2023-03-01T06:58:34;-2.90;99.90
15364;DHT22;7781;49.690;6.472;2023-03-01T07:01:05;-2.90;99.90
15364;DHT22;7781;49.690;6.472;2023-03-01T07:03:34;-2.90;99.90
15364;DHT22;7781;49.690;6.472;2023-03-01T07:06:04;-2.90;99.90
15364;DHT22;7781;49.690;6.472;2023-03-01T07:08:32;-2.90;99.90
15364;DHT22;7781;49.690;6.472;2023-03-01T07:11:03;-2.80;99.90
15364;DHT22;7781;49.690;6.472;2023-03-01T07:13:32;-2.80;99.90
15364;DHT22;7781;49.690;6.472;2023-03-01T07:16:01;-2.70;99.90
15364;DHT22;7781;49.690;6.472;2023-03-01T07:18:30;-2.60;99.90
15364;DHT22;7781;49.690;6.472;2023-03-01T07:21:04;-2.60;99.90
15364;DHT22;7781;49.690;6.472;2023-03-01T07:23:32;-2.50;99.90
15364;DHT22;7781;49.690;6.472;2023-03-01T07:26:03;-2.50;99.90
15364;DHT22;7781;49.690;6.472;2023-03-01T07:28:31;-2.50;99.90
15364;DHT22;7781;49.690;6.472;2023-03-01T07:31:03;-2.40;99.90
15364;DHT22;7781;49.690;6.472;2023-03-01T07:33:31;-2.30;99.90
15364;DHT22;7781;49.690;6.472;2023-03-01T07:36:01;-2.30;99.90
15364;DHT22;7781;49.690;6.472;2023-03-01T07:38:30;-2.20;99.90
15364;DHT22;7781;49.690;6.472;2023-03-01T07:40:59;-2.10;99.90
15364;DHT22;7781;49.690;6.472;2023-03-01T07:43:30;-2.00;99.90
15364;DHT22;7781;49.690;6.472;2023-03-01T07:45:59;-1.90;99.90
15364;DHT22;7781;49.690;6.472;2023-03-01T07:48:29;-1.80;99.90
15364;DHT22;7781;49.690;6.472;2023-03-01T07:50:59;-1.70;99.90
15364;DHT22;7781;49.690;6.472;2023-03-01T07:53:28;-1.60;99.90
15364;DHT22;7781;49.690;6.472;2023-03-01T07:56:02;-1.50;99.90
15364;DHT22;7781;49.690;6.472;2023-03-01T07:58:34;-1.40;99.90
15364;DHT22;7781;49.690;6.472;2023-03-01T08:01:03;-1.30;99.90
15364;DHT22;7781;49.690;6.472;2023-03-01T08:03:32;-1.30;99.90
15364;DHT22;7781;49.690;6.472;2023-03-01T08:06:01;-1.20;99.90
15364;DHT22;7781;49.690;6.472;2023-03-01T08:08:31;-1.10;99.90
15364;DHT22;7781;49.690;6.472;2023-03-01T08:10:59;-1.00;99.90
15364;DHT22;7781;49.690;6.472;2023-03-01T08:13:29;-0.90;99.90
15364;DHT22;7781;49.690;6.472;2023-03-01T08:16:05;-0.80;99.90
15364;DHT22;7781;49.690;6.472;2023-03-01T08:18:34;-0.80;99.90
15364;DHT22;7781;49.690;6.472;2023-03-01T08:21:04;-0.70;99.90
15364;DHT22;7781;49.690;6.472;2023-03-01T08:23:33;-0.60;99.90
15364;DHT22;7781;49.690;6.472;2023-03-01T08:26:06;-0.60;99.90
15364;DHT22;7781;49.690;6.472;2023-03-01T08:28:36;-0.50;99.90
15364;DHT22;7781;49.690;6.472;2023-03-01T08:31:15;-0.40;99.90
15364;DHT22;7781;49.690;6.472;2023-03-01T08:33:44;-0.30;99.90
15364;DHT22;7781;49.690;6.472;2023-03-01T08:36:18;-0.20;99.90
15364;DHT22;7781;49.690;6.472;2023-03-01T08:38:48;-0.10;99.90
15364;DHT22;7781;49.690;6.472;2023-03-01T08:41:17;0.00;99.90
15364;DHT22;7781;49.690;6.472;2023-03-01T08:43:46;0.10;99.90
15364;DHT22;7781;49.690;6.472;2023-03-01T08:46:16;0.10;99.90
15364;DHT22;7781;49.690;6.472;2023-03-01T08:48:45;0.30;99.90
15364;DHT22;7781;49.690;6.472;2023-03-01T08:51:16;0.40;99.90
15364;DHT22;7781;49.690;6.472;2023-03-01T08:53:47;0.50;99.90
15364;DHT22;7781;49.690;6.472;2023-03-01T08:56:16;0.60;99.90
15364;DHT22;7781;49.690;6.472;2023-03-01T08:58:46;0.70;99.90
15364;DHT22;7781;49.690;6.472;2023-03-01T09:01:18;0.80;99.90
15364;DHT22;7781;49.690;6.472;2023-03-01T09:03:47;1.00;94.70
15364;DHT22;7781;49.690;6.472;2023-03-01T09:06:18;1.00;93.90
15364;DHT22;7781;49.690;6.472;2023-03-01T09:08:49;1.10;91.80
15364;DHT22;7781;49.690;6.472;2023-03-01T09:11:21;1.30;93.70
15364;DHT22;7781;49.690;6.472;2023-03-01T09:13:51;1.40;94.70
15364;DHT22;7781;49.690;6.472;2023-03-01T09:16:22;1.50;89.90
15364;DHT22;7781;49.690;6.472;2023-03-01T09:18:52;1.60;89.90
15364;DHT22;7781;49.690;6.472;2023-03-01T09:21:23;1.80;80.40
15364;DHT22;7781;49.690;6.472;2023-03-01T09:24:12;1.80;76.20
15364;DHT22;7781;49.690;6.472;2023-03-01T09:26:41;1.90;85.60
15364;DHT22;7781;49.690;6.472;2023-03-01T09:29:10;2.00;80.80
15364;DHT22;7781;49.690;6.472;2023-03-01T09:31:43;2.20;86.00
15364;DHT22;7781;49.690;6.472;2023-03-01T09:34:11;2.30;72.50
15364;DHT22;7781;49.690;6.472;2023-03-01T09:36:42;2.50;68.40
15364;DHT22;7781;49.690;6.472;2023-03-01T09:39:11;2.70;77.40
15364;DHT22;7781;49.690;6.472;2023-03-01T09:41:46;2.80;62.40
15364;DHT22;7781;49.690;6.472;2023-03-01T09:44:33;2.90;73.40
15364;DHT22;7781;49.690;6.472;2023-03-01T09:47:09;3.10;66.70
15364;DHT22;7781;49.690;6.472;2023-03-01T09:49:41;3.30;72.60
15364;DHT22;7781;49.690;6.472;2023-03-01T09:52:23;3.50;54.10
15364;DHT22;7781;49.690;6.472;2023-03-01T09:54:55;3.60;49.00
15364;DHT22;7781;49.690;6.472;2023-03-01T09:57:33;3.70;48.70
15364;DHT22;7781;49.690;6.472;2023-03-01T10:00:28;3.80;48.60
15364;DHT22;7781;49.690;6.472;2023-03-01T10:03:07;3.90;43.50
15364;DHT22;7781;49.690;6.472;2023-03-01T10:05:44;4.10;35.50
15364;DHT22;7781;49.690;6.472;2023-03-01T10:08:36;4.20;52.40
15364;DHT22;7781;49.690;6.472;2023-03-01T10:11:24;4.20;35.20
15364;DHT22;7781;49.690;6.472;2023-03-01T10:13:58;4.30;30.90
15364;DHT22;7781;49.690;6.472;2023-03-01T10:16:42;4.40;34.00
15364;DHT22;7781;49.690;6.472;2023-03-01T10:19:20;4.60;23.10
15364;DHT22;7781;49.690;6.472;2023-03-01T10:21:51;4.80;18.00
15364;DHT22;7781;49.690;6.472;2023-03-01T10:24:20;4.90;24.00
15364;DHT22;7781;49.690;6.472;2023-03-01T10:26:54;5.10;27.50
15364;DHT22;7781;49.690;6.472;2023-03-01T10:29:33;5.20;22.10
15364;DHT22;7781;49.690;6.472;2023-03-01T10:32:04;5.30;20.20
15364;DHT22;7781;49.690;6.472;2023-03-01T10:34:36;5.40;23.60
15364;DHT22;7781;49.690;6.472;2023-03-01T10:37:11;5.50;12.80
15364;DHT22;7781;49.690;6.472;2023-03-01T10:39:58;5.60;12.80
15364;DHT22;7781;49.690;6.472;2023-03-01T10:42:34;5.70;24.50
15364;DHT22;7781;49.690;6.472;2023-03-01T10:45:16;5.70;11.80
15364;DHT22;7781;49.690;6.472;2023-03-01T10:47:45;5.80;8.90
15364;DHT22;7781;49.690;6.472;2023-03-01T10:50:22;5.90;11.30
15364;DHT22;7781;49.690;6.472;2023-03-01T10:53:01;6.00;15.60
15364;DHT22;7781;49.690;6.472;2023-03-01T10:55:35;6.00;20.00
15364;DHT22;7781;49.690;6.472;2023-03-01T10:58:17;6.10;16.90
15364;DHT22;7781;49.690;6.472;2023-03-01T11:00:49;6.10;21.80
15364;DHT22;7781;49.690;6.472;2023-03-01T11:03:23;6.00;24.40
15364;DHT22;7781;49.690;6.472;2023-03-01T11:06:21;6.00;26.60
15364;DHT22;7781;49.690;6.472;2023-03-01T11:08:50;6.20;15.80
15364;DHT22;7781;49.690;6.472;2023-03-01T11:11:30;6.30;19.70
15364;DHT22;7781;49.690;6.472;2023-03-01T11:14:01;6.30;14.30
15364;DHT22;7781;49.690;6.472;2023-03-01T11:16:59;6.30;21.50
15364;DHT22;7781;49.690;6.472;2023-03-01T11:19:29;6.40;19.70
15364;DHT22;7781;49.690;6.472;2023-03-01T11:22:03;6.60;11.60
15364;DHT22;7781;49.690;6.472;2023-03-01T11:24:39;6.70;13.30
15364;DHT22;7781;49.690;6.472;2023-03-01T11:27:17;6.70;29.00
15364;DHT22;7781;49.690;6.472;2023-03-01T11:29:51;6.50;26.30
15364;DHT22;7781;49.690;6.472;2023-03-01T11:32:26;6.50;21.80
15364;DHT22;7781;49.690;6.472;2023-03-01T11:34:59;6.60;22.50
15364;DHT22;7781;49.690;6.472;2023-03-01T11:37:37;6.70;29.70
15364;DHT22;7781;49.690;6.472;2023-03-01T11:40:13;6.90;29.10
15364;DHT22;7781;49.690;6.472;2023-03-01T11:42:51;7.00;21.10
15364;DHT22;7781;49.690;6.472;2023-03-01T11:45:24;7.20;17.50
15364;DHT22;7781;49.690;6.472;2023-03-01T11:48:06;7.30;20.30
15364;DHT22;7781;49.690;6.472;2023-03-01T11:50:41;7.40;21.00
15364;DHT22;7781;49.690;6.472;2023-03-01T11:53:32;7.50;31.10
15364;DHT22;7781;49.690;6.472;2023-03-01T11:56:09;7.60;31.80
15364;DHT22;7781;49.690;6.472;2023-03-01T11:59:03;7.60;27.90
15364;DHT22;7781;49.690;6.472;2023-03-01T12:01:53;7.50;42.00
15364;DHT22;7781;49.690;6.472;2023-03-01T12:07:39;7.40;33.80
15364;DHT22;7781;49.690;6.472;2023-03-01T12:10:32;7.60;31.20
15364;DHT22;7781;49.690;6.472;2023-03-01T12:13:17;7.80;30.40
15364;DHT22;7781;49.690;6.472;2023-03-01T12:16:02;8.00;37.30
15364;DHT22;7781;49.690;6.472;2023-03-01T12:18:57;8.00;42.70
15364;DHT22;7781;49.690;6.472;2023-03-01T12:21:40;8.10;50.20
15364;DHT22;7781;49.690;6.472;2023-03-01T12:24:37;8.20;38.90
15364;DHT22;7781;49.690;6.472;2023-03-01T12:27:31;8.30;31.40
15364;DHT22;7781;49.690;6.472;2023-03-01T12:30:17;8.30;41.50
15364;DHT22;7781;49.690;6.472;2023-03-01T12:33:01;8.40;43.70
15364;DHT22;7781;49.690;6.472;2023-03-01T12:39:02;8.40;56.10
15364;DHT22;7781;49.690;6.472;2023-03-01T12:41:43;8.70;41.50
15364;DHT22;7781;49.690;6.472;2023-03-01T12:47:36;9.30;43.20
15364;DHT22;7781;49.690;6.472;2023-03-01T12:50:16;9.70;55.30
15364;DHT22;7781;49.690;6.472;2023-03-01T12:52:51;9.80;68.20
15364;DHT22;7781;49.690;6.472;2023-03-01T12:55:28;9.90;56.80
15364;DHT22;7781;49.690;6.472;2023-03-01T12:58:04;10.00;90.50
15364;DHT22;7781;49.690;6.472;2023-03-01T13:00:39;10.10;83.00
15364;DHT22;7781;49.690;6.472;2023-03-01T13:03:19;10.20;97.60
15364;DHT22;7781;49.690;6.472;2023-03-01T13:06:00;10.40;94.20
15364;DHT22;7781;49.690;6.472;2023-03-01T13:08:37;10.50;87.70
15364;DHT22;7781;49.690;6.472;2023-03-01T13:11:20;10.60;92.20
15364;DHT22;7781;49.690;6.472;2023-03-01T13:13:50;10.90;97.00
15364;DHT22;7781;49.690;6.472;2023-03-01T13:16:42;10.90;99.90
15364;DHT22;7781;49.690;6.472;2023-03-01T13:19:18;10.90;99.90
15364;DHT22;7781;49.690;6.472;2023-03-01T13:21:49;10.80;99.90
15364;DHT22;7781;49.690;6.472;2023-03-01T13:24:26;10.90;99.90
15364;DHT22;7781;49.690;6.472;2023-03-01T13:27:10;11.40;99.90
15364;DHT22;7781;49.690;6.472;2023-03-01T13:29:48;11.90;99.90
15364;DHT22;7781;49.690;6.472;2023-03-01T13:32:21;11.70;99.90
15364;DHT22;7781;49.690;6.472;2023-03-01T13:35:42;11.30;99.90
15364;DHT22;7781;49.690;6.472;2023-03-01T13:38:44;11.40;99.90
15364;DHT22;7781;49.690;6.472;2023-03-01T13:41:14;11.60;99.90
15364;DHT22;7781;49.690;6.472;2023-03-01T13:43:43;11.60;99.90
15364;DHT22;7781;49.690;6.472;2023-03-01T13:46:17;11.60;99.90
15364;DHT22;7781;49.690;6.472;2023-03-01T13:48:50;11.60;99.90
15364;DHT22;7781;49.690;6.472;2023-03-01T13:51:23;11.40;99.90
15364;DHT22;7781;49.690;6.472;2023-03-01T13:53:54;11.40;99.90
15364;DHT22;7781;49.690;6.472;2023-03-01T13:56:26;11.20;99.90
15364;DHT22;7781;49.690;6.472;2023-03-01T13:59:01;11.10;99.90
15364;DHT22;7781;49.690;6.472;2023-03-01T14:01:33;11.20;99.90
15364;DHT22;7781;49.690;6.472;2023-03-01T14:04:03;11.30;99.90
15364;DHT22;7781;49.690;6.472;2023-03-01T14:06:47;11.20;99.90
15364;DHT22;7781;49.690;6.472;2023-03-01T14:09:20;11.30;99.90
15364;DHT22;7781;49.690;6.472;2023-03-01T14:12:09;11.40;99.90
15364;DHT22;7781;49.690;6.472;2023-03-01T14:14:46;11.50;99.90
15364;DHT22;7781;49.690;6.472;2023-03-01T14:17:46;11.50;99.90
15364;DHT22;7781;49.690;6.472;2023-03-01T14:20:20;11.20;99.90
15364;DHT22;7781;49.690;6.472;2023-03-01T14:22:53;10.90;99.90
15364;DHT22;7781;49.690;6.472;2023-03-01T14:25:26;10.50;99.90
15364;DHT22;7781;49.690;6.472;2023-03-01T14:28:02;10.30;99.90
15364;DHT22;7781;49.690;6.472;2023-03-01T14:30:35;10.30;99.90
15364;DHT22;7781;49.690;6.472;2023-03-01T14:33:16;10.20;99.90
15364;DHT22;7781;49.690;6.472;2023-03-01T14:35:53;10.10;99.90
15364;DHT22;7781;49.690;6.472;2023-03-01T14:38:29;10.10;99.90
15364;DHT22;7781;49.690;6.472;2023-03-01T14:41:01;10.10;99.90
15364;DHT22;7781;49.690;6.472;2023-03-01T14:43:33;10.20;99.90
15364;DHT22;7781;49.690;6.472;2023-03-01T14:46:02;10.10;99.90
15364;DHT22;7781;49.690;6.472;2023-03-01T14:48:31;10.10;99.90
15364;DHT22;7781;49.690;6.472;2023-03-01T14:51:00;10.20;99.90
15364;DHT22;7781;49.690;6.472;2023-03-01T14:53:30;10.30;99.90
15364;DHT22;7781;49.690;6.472;2023-03-01T14:56:17;10.30;99.90
15364;DHT22;7781;49.690;6.472;2023-03-01T14:58:51;10.40;99.90
15364;DHT22;7781;49.690;6.472;2023-03-01T15:01:21;10.40;99.90
15364;DHT22;7781;49.690;6.472;2023-03-01T15:03:50;10.30;99.90
15364;DHT22;7781;49.690;6.472;2023-03-01T15:06:22;10.10;99.90
15364;DHT22;7781;49.690;6.472;2023-03-01T15:08:53;10.10;99.90
15364;DHT22;7781;49.690;6.472;2023-03-01T15:11:27;10.10;99.90
15364;DHT22;7781;49.690;6.472;2023-03-01T15:13:57;10.00;99.90
15364;DHT22;7781;49.690;6.472;2023-03-01T15:16:27;10.00;99.90
15364;DHT22;7781;49.690;6.472;2023-03-01T15:19:01;10.10;99.90
15364;DHT22;7781;49.690;6.472;2023-03-01T15:21:32;10.20;99.90
15364;DHT22;7781;49.690;6.472;2023-03-01T15:24:07;10.40;99.90
15364;DHT22;7781;49.690;6.472;2023-03-01T15:26:42;10.30;99.90
15364;DHT22;7781;49.690;6.472;2023-03-01T15:29:17;10.20;99.90
15364;DHT22;7781;49.690;6.472;2023-03-01T15:31:55;10.20;99.90
15364;DHT22;7781;49.690;6.472;2023-03-01T15:34:25;10.00;99.90
15364;DHT22;7781;49.690;6.472;2023-03-01T15:36:56;9.90;99.90
15364;DHT22;7781;49.690;6.472;2023-03-01T15:39:50;9.90;99.90
15364;DHT22;7781;49.690;6.472;2023-03-01T15:42:38;9.80;99.90
15364;DHT22;7781;49.690;6.472;2023-03-01T15:45:10;9.70;99.90
15364;DHT22;7781;49.690;6.472;2023-03-01T15:47:43;9.60;99.90
15364;DHT22;7781;49.690;6.472;2023-03-01T15:50:18;9.60;99.90
15364;DHT22;7781;49.690;6.472;2023-03-01T15:52:47;9.50;99.90
15364;DHT22;7781;49.690;6.472;2023-03-01T15:55:22;9.40;99.90
15364;DHT22;7781;49.690;6.472;2023-03-01T15:58:02;9.20;99.90
15364;DHT22;7781;49.690;6.472;2023-03-01T16:00:35;9.00;99.90
15364;DHT22;7781;49.690;6.472;2023-03-01T16:03:28;8.80;99.90
15364;DHT22;7781;49.690;6.472;2023-03-01T16:05:58;8.60;99.90
15364;DHT22;7781;49.690;6.472;2023-03-01T16:08:27;8.60;99.90
15364;DHT22;7781;49.690;6.472;2023-03-01T16:10:58;8.40;99.90
15364;DHT22;7781;49.690;6.472;2023-03-01T16:13:30;8.30;99.90
15364;DHT22;7781;49.690;6.472;2023-03-01T16:22:11;8.10;99.90
15364;DHT22;7781;49.690;6.472;2023-03-01T16:24:39;7.80;99.90
15364;DHT22;7781;49.690;6.472;2023-03-01T16:27:10;7.80;99.90
15364;DHT22;7781;49.690;6.472;2023-03-01T16:29:38;7.70;99.90
15364;DHT22;7781;49.690;6.472;2023-03-01T16:32:07;7.60;99.90
15364;DHT22;7781;49.690;6.472;2023-03-01T16:34:36;7.50;99.90
15364;DHT22;7781;49.690;6.472;2023-03-01T16:37:04;7.40;99.90
15364;DHT22;7781;49.690;6.472;2023-03-01T16:39:33;7.40;99.90
15364;DHT22;7781;49.690;6.472;2023-03-01T16:42:01;7.30;99.90
15364;DHT22;7781;49.690;6.472;2023-03-01T16:44:31;7.30;99.90